Ward, Louisiana
Current Conditions -  °F | °C
As of 1:15 PM on Friday 21 Nov 2014 (Local Time) from KACP Reporting Station
Overcast Overcast  
Wind Chill: 71°   Ceiling: 9000
Heat Index: 71°   Visibility: 10mi
Dew Point: 46°   Wind: 10mph
Humidity: 40%   Direction: 130°SE
Pressure: 30.19"   Gusts: 16mph
Location:  30.8164°N, 92.6914°W
Report Text: KACP 211915Z AUTO 13009G14KT 10SM SCT070 OVC090 22/08 A3019 RMK AO2 T02170075
Loading
Personal Weather Stations






























Interactive Weather Map New forecast layout! Learn more

10-Day Weather Forecast

Advertisements
Track Severe Weather on mobile